Time;durP1;ratioP1;P1;durP2;ratioP2;P2;SDS_P1;SDS_P2;PMS_P1;PMS_P2;Temp;Humidity;BMP_temperature;BMP_pressure;BME280_temperature;BME280_humidity;BME280_pressure;Samples;Min_cycle;Max_cycle;Signal;HPM_P1;HPM_P2
2022/09/20 00:01:23;;;;;;;;;1.00;1.00;;;;;13.54;70.19;102269.16;5030536;28;9143;-65
2022/09/20 00:03:53;;;;;;;;;1.00;1.00;;;;;13.51;70.63;102275.75;5047168;28;9172;-65
2022/09/20 00:06:22;;;;;;;;;2.67;2.00;;;;;13.47;70.55;102265.47;5034512;28;8835;-65
2022/09/20 00:08:49;;;;;;;;;2.00;2.00;;;;;13.41;70.51;102264.34;5037887;28;9231;-65
2022/09/20 00:11:19;;;;;;;;;1.00;1.00;;;;;13.35;70.73;102265.88;5033612;28;9242;-65
2022/09/20 00:13:47;;;;;;;;;1.00;1.00;;;;;13.29;70.92;102257.66;5041704;28;9891;-65
2022/09/20 00:16:22;;;;;;;;;0.67;0.67;;;;;13.29;71.16;102257.66;5029083;28;9259;-65
2022/09/20 00:18:54;;;;;;;;;2.00;1.00;;;;;13.27;71.31;102252.38;5029987;28;9230;-64
2022/09/20 00:21:26;;;;;;;;;1.00;1.00;;;;;13.26;71.72;102258.81;5033991;28;9067;-65
2022/09/20 00:23:53;;;;;;;;;1.33;1.33;;;;;13.27;71.77;102260.50;5048691;28;10039;-64
2022/09/20 00:26:20;;;;;;;;;0.67;0.67;;;;;13.27;71.70;102256.97;5032983;28;9227;-64
2022/09/20 00:28:47;;;;;;;;;2.00;0.00;;;;;13.26;71.72;102250.72;5033568;28;9144;-65
2022/09/20 00:31:14;;;;;;;;;2.00;1.67;;;;;13.28;71.65;102251.38;5032816;28;9160;-65
2022/09/20 00:36:28;;;;;;;;;1.00;1.00;;;;;13.28;71.76;102253.22;5048165;28;9399;-67
2022/09/20 00:39:00;;;;;;;;;0.00;0.00;;;;;13.29;71.84;102260.34;5030138;28;9215;-64
2022/09/20 00:41:28;;;;;;;;;0.00;0.00;;;;;13.29;71.78;102250.38;5032250;28;9227;-66
2022/09/20 00:43:55;;;;;;;;;1.00;1.00;;;;;13.30;72.05;102253.91;5035671;28;9165;-65
2022/09/20 00:46:28;;;;;;;;;1.00;1.00;;;;;13.31;71.86;102256.44;5034175;28;9363;-64
2022/09/20 00:49:00;;;;;;;;;0.00;0.00;;;;;13.32;71.90;102255.41;5032703;28;9447;-65
2022/09/20 00:51:31;;;;;;;;;2.00;1.00;;;;;13.31;72.11;102261.84;5031611;28;9267;-65
2022/09/20 00:54:01;;;;;;;;;0.33;0.33;;;;;13.32;71.65;102259.97;5030483;28;9232;-65
2022/09/20 00:56:32;;;;;;;;;3.00;1.33;;;;;13.31;72.19;102258.28;5033626;28;9307;-64
2022/09/20 00:59:21;;;;;;;;;2.00;1.00;;;;;13.31;72.09;102259.13;5029030;28;9367;-66
2022/09/20 01:01:53;;;;;;;;;0.33;0.33;;;;;13.31;71.91;102259.13;5028106;28;9265;-66
2022/09/20 01:04:25;;;;;;;;;1.00;1.00;;;;;13.29;71.96;102258.47;5030577;28;9254;-66
2022/09/20 01:06:54;;;;;;;;;1.00;1.00;;;;;13.26;71.83;102255.28;5034987;28;9224;-65
2022/09/20 01:09:21;;;;;;;;;0.00;0.00;;;;;13.26;71.78;102256.13;5054055;28;9159;-65
2022/09/20 01:11:50;;;;;;;;;1.67;1.00;;;;;13.25;71.46;102262.56;5034828;28;9302;-65
2022/09/20 01:14:18;;;;;;;;;2.00;1.00;;;;;13.23;71.90;102261.03;5026811;28;9332;-66
2022/09/20 01:16:45;;;;;;;;;0.00;0.00;;;;;13.22;71.78;102262.03;5036962;28;9326;-65
2022/09/20 01:19:56;;;;;;;;;1.67;1.00;;;;;13.21;71.84;102261.19;5029655;28;9296;-65
2022/09/20 01:22:32;;;;;;;;;1.00;1.00;;;;;13.20;72.00;102261.34;5029525;28;9314;-65
2022/09/20 01:25:10;;;;;;;;;0.00;0.00;;;;;13.22;72.13;102260.16;5031576;28;9214;-66
2022/09/20 01:27:44;;;;;;;;;1.33;0.67;;;;;13.23;72.01;102261.88;5032556;28;9254;-64
2022/09/20 01:30:17;;;;;;;;;1.33;0.67;;;;;13.24;72.18;102257.31;5018914;28;9219;-64
2022/09/20 01:32:52;;;;;;;;;0.00;0.00;;;;;13.25;72.13;102264.44;5037725;28;9409;-64
2022/09/20 01:35:22;;;;;;;;;0.00;0.00;;;;;13.26;72.30;102255.28;5022619;28;9164;-64
2022/09/20 01:38:17;;;;;;;;;0.67;0.67;;;;;13.26;72.26;102252.59;5040090;28;9672;-66
2022/09/20 01:41:02;;;;;;;;;0.00;0.00;;;;;13.25;72.07;102249.03;5014401;28;9198;-63
2022/09/20 01:43:53;;;;;;;;;1.00;1.00;;;;;13.24;72.17;102246.50;5031273;28;9301;-63
2022/09/20 01:46:42;;;;;;;;;2.00;0.00;;;;;13.23;72.17;102250.22;4987405;28;9237;-63
2022/09/20 01:49:13;;;;;;;;;0.00;0.00;;;;;13.23;72.34;102261.03;5046367;28;9232;-64
2022/09/20 01:51:55;;;;;;;;;0.00;0.00;;;;;13.20;72.22;102251.38;5052181;28;9242;-64
2022/09/20 01:55:01;;;;;;;;;1.00;0.00;;;;;13.18;72.18;102255.28;5027256;28;9173;-65
2022/09/20 01:57:48;;;;;;;;;0.00;0.00;;;;;13.17;71.97;102256.31;4996157;28;9290;-64
2022/09/20 02:00:40;;;;;;;;;0.00;0.00;;;;;13.15;72.16;102247.53;5028210;28;9901;-64
2022/09/20 02:03:25;;;;;;;;;1.00;0.00;;;;;13.14;72.14;102248.56;4994587;28;9152;-64
2022/09/20 02:06:22;;;;;;;;;0.00;0.00;;;;;13.12;71.94;102254.13;5031376;28;9244;-64
2022/09/20 02:09:27;;;;;;;;;0.67;0.67;;;;;13.09;71.89;102249.94;5031127;28;9228;-64
2022/09/20 02:12:12;;;;;;;;;0.00;0.00;;;;;13.09;71.73;102247.22;4991426;28;9382;-64
2022/09/20 02:15:06;;;;;;;;;1.33;1.33;;;;;13.05;71.72;102242.34;5028333;28;9220;-62
2022/09/20 02:17:53;;;;;;;;;1.00;0.00;;;;;13.00;71.57;102239.31;5027740;28;9369;-64
2022/09/20 02:20:47;;;;;;;;;1.00;1.00;;;;;12.96;71.77;102243.38;5022972;28;9252;-65
2022/09/20 02:23:35;;;;;;;;;0.00;0.00;;;;;12.91;71.63;102246.63;5028124;28;9266;-64
2022/09/20 02:26:35;;;;;;;;;0.00;0.00;;;;;12.87;71.81;102248.81;5031828;28;9257;-64
2022/09/20 02:29:25;;;;;;;;;0.00;0.00;;;;;12.83;71.75;102247.50;5033188;28;10016;-66
2022/09/20 02:32:24;;;;;;;;;0.00;0.00;;;;;12.78;71.81;102251.75;5030221;28;9398;-65
2022/09/20 02:35:27;;;;;;;;;1.00;0.00;;;;;12.78;72.07;102255.28;5029170;28;9464;-65
2022/09/20 02:37:57;;;;;;;;;0.00;0.00;;;;;12.76;71.93;102248.34;5031643;28;10391;-65
2022/09/20 02:40:55;;;;;;;;;0.25;0.25;;;;;12.72;71.83;102245.19;5029419;28;9426;-64
2022/09/20 02:43:21;;;;;;;;;2.00;0.00;;;;;12.69;71.89;102253.63;5031886;28;9377;-64
2022/09/20 02:46:20;;;;;;;;;1.00;1.00;;;;;12.68;72.05;102248.38;5030998;28;9360;-64
2022/09/20 02:49:03;;;;;;;;;0.00;0.00;;;;;12.67;72.13;102255.66;5026024;28;9374;-65
2022/09/20 02:51:42;;;;;;;;;0.25;0.25;;;;;12.67;72.20;102250.25;5029690;28;10118;-65
2022/09/20 02:54:52;;;;;;;;;0.00;0.00;;;;;12.68;72.29;102251.97;5028771;28;9408;-65
2022/09/20 02:57:44;;;;;;;;;0.67;0.67;;;;;12.71;72.36;102256.16;5023896;28;9406;-65
2022/09/20 03:00:31;;;;;;;;;0.00;0.00;;;;;12.71;72.28;102257.00;5035920;28;9419;-65
2022/09/20 03:03:34;;;;;;;;;1.00;1.00;;;;;12.73;72.54;102252.28;5043258;28;9984;-64
2022/09/20 03:06:32;;;;;;;;;0.50;0.50;;;;;12.72;72.38;102247.03;5033068;28;9379;-65
2022/09/20 03:09:12;;;;;;;;;1.00;1.00;;;;;12.71;72.37;102248.88;5011464;28;9377;-64
2022/09/20 03:11:49;;;;;;;;;1.00;1.00;;;;;12.72;72.54;102247.91;5033634;28;9445;-64
2022/09/20 03:14:29;;;;;;;;;0.00;0.00;;;;;12.74;72.40;102250.41;5026436;28;9295;-65
2022/09/20 03:17:04;;;;;;;;;0.00;0.00;;;;;12.75;72.39;102255.63;5032068;28;9305;-65
2022/09/20 03:19:59;;;;;;;;;0.33;0.33;;;;;12.74;72.04;102253.09;5071250;23;9349;-65
2022/09/20 03:22:38;;;;;;;;;1.00;0.00;;;;;12.72;72.09;102258.69;5048282;28;9492;-65
2022/09/20 03:25:16;;;;;;;;;0.00;0.00;;;;;12.72;72.16;102249.72;5053257;28;9382;-65
2022/09/20 03:27:58;;;;;;;;;0.00;0.00;;;;;12.70;71.98;102252.59;5056661;28;9160;-66
2022/09/20 03:30:49;;;;;;;;;0.00;0.00;;;;;12.70;72.07;102249.91;5045023;28;9346;-65
2022/09/20 03:33:43;;;;;;;;;0.67;0.67;;;;;12.70;72.14;102260.72;5055398;28;9308;-66
2022/09/20 03:36:38;;;;;;;;;0.00;0.00;;;;;12.69;72.09;102255.50;5061132;28;9426;-65
2022/09/20 03:39:19;;;;;;;;;1.67;1.00;;;;;12.67;71.92;102252.94;5058662;28;9344;-65
2022/09/20 03:42:10;;;;;;;;;0.00;0.00;;;;;12.66;72.03;102253.97;5053580;28;9389;-66
2022/09/20 03:45:07;;;;;;;;;0.00;0.00;;;;;12.66;71.99;102256.69;5046311;28;9284;-66
2022/09/20 03:47:58;;;;;;;;;0.00;0.00;;;;;12.66;72.05;102253.97;5054843;28;9306;-66
2022/09/20 03:50:37;;;;;;;;;0.00;0.00;;;;;12.61;71.85;102254.50;5058170;28;9491;-66
2022/09/20 03:53:19;;;;;;;;;0.00;0.00;;;;;12.61;72.01;102254.50;5043198;28;9379;-66
2022/09/20 03:56:05;;;;;;;;;0.00;0.00;;;;;12.59;72.04;102253.81;5046561;28;9312;-66
2022/09/20 03:59:13;;;;;;;;;0.33;0.33;;;;;12.58;72.02;102254.00;5038540;28;10149;-66
2022/09/20 04:02:13;;;;;;;;;1.00;1.00;;;;;12.53;71.92;102254.53;5057949;28;9359;-66
2022/09/20 04:04:53;;;;;;;;;0.00;0.00;;;;;12.51;72.06;102258.41;5049785;28;9454;-66
2022/09/20 04:07:44;;;;;;;;;1.00;0.00;;;;;12.47;72.34;102254.34;5048237;28;9498;-65
2022/09/20 04:10:43;;;;;;;;;1.00;0.00;;;;;12.43;72.40;102274.63;5042518;28;9440;-66
2022/09/20 04:13:38;;;;;;;;;0.00;0.00;;;;;12.41;72.27;102265.84;5024077;28;9389;-66
2022/09/20 04:16:39;;;;;;;;;0.00;0.00;;;;;12.38;72.50;102267.03;5056312;28;9405;-65
2022/09/20 04:19:22;;;;;;;;;0.00;0.00;;;;;12.34;72.10;102265.69;5048777;28;9297;-66
2022/09/20 04:21:59;;;;;;;;;0.75;0.25;;;;;12.33;72.55;102270.25;5055213;28;9397;-66
2022/09/20 04:24:29;;;;;;;;;0.00;0.00;;;;;12.32;72.43;102265.88;5049661;28;9470;-66
2022/09/20 04:27:07;;;;;;;;;0.00;0.00;;;;;12.32;72.55;102265.88;5049703;28;9524;-66
2022/09/20 04:29:43;;;;;;;;;0.00;0.00;;;;;12.31;72.72;102263.31;5050059;28;9456;-66
2022/09/20 04:32:40;;;;;;;;;1.67;1.67;;;;;12.29;72.23;102257.25;5044816;28;9376;-66
2022/09/20 04:38:20;;;;;;;;;1.50;1.50;;;;;12.22;72.05;102267.91;5042346;28;9432;-66
2022/09/20 04:41:08;;;;;;;;;2.50;1.00;;;;;12.23;72.12;102269.56;5050410;28;9531;-66
2022/09/20 04:44:01;;;;;;;;;1.00;1.00;;;;;12.22;72.16;102276.00;5048868;28;10311;-66
2022/09/20 04:46:48;;;;;;;;;0.00;0.00;;;;;12.18;72.11;102274.66;5034282;28;9642;-67
2022/09/20 04:49:44;;;;;;;;;1.25;1.25;;;;;12.17;71.98;102275.66;5050664;28;9447;-67
2022/09/20 04:52:25;;;;;;;;;2.00;1.00;;;;;12.12;72.01;102272.63;5050418;28;9423;-66
2022/09/20 04:55:11;;;;;;;;;1.00;1.00;;;;;12.10;71.96;102271.94;5043080;28;9475;-66
2022/09/20 04:58:15;;;;;;;;;4.00;1.00;;;;;12.07;72.10;102270.44;5057406;28;9396;-66
2022/09/20 05:00:57;;;;;;;;;0.75;0.75;;;;;12.05;72.02;102277.03;5037354;28;9377;-66
2022/09/20 05:03:41;;;;;;;;;1.00;1.00;;;;;11.98;71.79;102279.53;5046477;28;9399;-66
2022/09/20 05:06:26;;;;;;;;;2.50;2.50;;;;;11.96;72.05;102283.44;5050158;28;9311;-66
2022/09/20 05:09:43;;;;;;;;;2.50;2.00;;;;;11.92;72.09;102284.78;5049982;28;9527;-65
2022/09/20 05:12:35;;;;;;;;;1.00;1.00;;;;;11.87;71.96;102278.03;5037063;28;9531;-66
2022/09/20 05:15:08;;;;;;;;;1.50;1.00;;;;;11.86;72.10;102280.88;5043451;28;10309;-65
2022/09/20 05:17:41;;;;;;;;;1.00;1.00;;;;;11.80;71.94;102274.28;5059249;28;9609;-66
2022/09/20 05:20:43;;;;;;;;;1.00;1.00;;;;;11.79;72.01;102280.69;5038313;28;9604;-66
2022/09/20 05:23:21;;;;;;;;;2.00;2.00;;;;;11.75;72.07;102287.44;5019892;28;10076;-66
2022/09/20 05:25:57;;;;;;;;;1.00;1.00;;;;;11.75;72.09;102281.16;5039381;28;9668;-66
2022/09/20 05:28:38;;;;;;;;;0.00;0.00;;;;;11.71;72.01;102275.28;5039677;28;9605;-66
2022/09/20 05:31:19;;;;;;;;;2.00;2.00;;;;;11.73;72.07;102294.00;5036499;28;10217;-66
2022/09/20 05:34:24;;;;;;;;;2.00;1.50;;;;;11.72;72.08;102286.91;5038311;28;9588;-66
2022/09/20 05:37:05;;;;;;;;;0.50;0.50;;;;;11.70;72.37;102291.63;5028412;28;9610;-65
2022/09/20 05:39:44;;;;;;;;;3.00;1.75;;;;;11.68;71.97;102291.81;5029759;28;9526;-66
2022/09/20 05:42:19;;;;;;;;;1.00;1.00;;;;;11.68;72.36;102294.50;5029877;28;9543;-66
2022/09/20 05:45:23;;;;;;;;;2.00;1.25;;;;;11.71;72.19;102290.59;5031681;28;9643;-66
2022/09/20 05:48:09;;;;;;;;;1.50;1.50;;;;;11.72;72.40;102303.94;5048995;28;9675;-66
2022/09/20 05:50:54;;;;;;;;;2.25;1.50;;;;;11.73;72.38;102311.03;5028468;28;9743;-66
2022/09/20 05:53:58;;;;;;;;;2.00;2.00;;;;;11.74;72.17;102315.41;5031402;28;9530;-66
2022/09/20 05:56:27;;;;;;;;;2.00;1.75;;;;;11.74;72.30;102320.78;5049055;28;9695;-66
2022/09/20 05:59:08;;;;;;;;;1.50;1.00;;;;;11.75;72.73;102318.94;5048194;28;9545;-65
2022/09/20 06:01:52;;;;;;;;;2.25;2.25;;;;;11.75;72.31;102325.19;5049469;28;9542;-66
2022/09/20 06:04:28;;;;;;;;;4.00;1.75;;;;;11.78;72.46;102340.19;5049141;28;9732;-66
2022/09/20 06:07:27;;;;;;;;;6.00;5.25;;;;;11.78;72.40;102338.34;5049183;28;10258;-66
2022/09/20 06:10:06;;;;;;;;;1.00;1.00;;;;;11.81;72.59;102334.47;5045741;28;10381;-66
2022/09/20 06:12:59;;;;;;;;;1.00;1.00;;;;;11.84;72.85;102331.47;5049705;28;9649;-67
2022/09/20 06:15:43;;;;;;;;;5.00;5.00;;;;;11.86;72.85;102338.38;5049340;28;9629;-66
2022/09/20 06:18:25;;;;;;;;;5.00;4.00;;;;;11.90;72.93;102333.50;5048865;28;9858;-66
2022/09/20 06:21:13;;;;;;;;;2.75;2.75;;;;;11.92;72.99;102325.25;5048213;28;9763;-66
2022/09/20 06:23:40;;;;;;;;;3.75;3.75;;;;;11.95;73.05;102324.91;5048883;28;9757;-66
2022/09/20 06:26:16;;;;;;;;;3.50;3.50;;;;;11.97;73.45;102328.28;5049014;28;10387;-66
2022/09/20 06:28:57;;;;;;;;;3.25;3.25;;;;;12.01;73.30;102322.38;5051132;28;10583;-65
2022/09/20 06:31:24;;;;;;;;;3.00;3.00;;;;;12.04;73.59;102318.53;5052974;28;9586;-65
2022/09/20 06:34:09;;;;;;;;;3.00;3.00;;;;;12.11;73.38;102324.91;5052777;28;9680;-66
2022/09/20 06:42:25;;;;;;;;;4.00;1.75;;;;;12.28;73.36;102328.50;5041207;28;10092;-67
2022/09/20 06:44:52;;;;;;;;;1.75;1.75;;;;;12.28;73.28;102326.63;5052695;28;9589;-66
2022/09/20 06:47:20;;;;;;;;;3.00;2.75;;;;;12.32;72.97;102337.94;5051571;28;9401;-66
2022/09/20 06:49:48;;;;;;;;;3.25;1.75;;;;;12.35;73.01;102337.56;5052699;28;10135;-66
2022/09/20 06:52:21;;;;;;;;;2.00;2.00;;;;;12.37;72.84;102338.25;5052406;28;9533;-67
2022/09/20 06:54:53;;;;;;;;;3.00;3.00;;;;;12.39;72.67;102338.91;5051608;28;9500;-66
2022/09/20 06:57:31;;;;;;;;;2.25;2.00;;;;;12.43;72.74;102340.28;5052424;28;9537;-66
2022/09/20 06:59:58;;;;;;;;;3.25;3.25;;;;;12.45;72.60;102348.22;5052531;28;10208;-65
2022/09/20 07:02:25;;;;;;;;;2.00;2.00;;;;;12.47;72.48;102346.19;5067750;28;9385;-65
2022/09/20 07:04:58;;;;;;;;;2.00;2.00;;;;;12.48;72.60;102347.91;5052195;28;9483;-65
2022/09/20 07:07:24;;;;;;;;;3.00;3.00;;;;;12.52;72.49;102351.94;5052234;28;9355;-67
2022/09/20 07:09:50;;;;;;;;;3.00;3.00;;;;;12.54;72.49;102350.72;5051218;28;9379;-66
2022/09/20 07:12:17;;;;;;;;;2.67;2.00;;;;;12.59;72.56;102353.75;5052682;28;9370;-66
2022/09/20 07:14:44;;;;;;;;;2.33;2.00;;;;;12.60;72.40;102350.06;5052372;28;9388;-65
2022/09/20 07:17:10;;;;;;;;;0.00;0.00;;;;;12.66;72.25;102356.63;5051488;28;9396;-66
2022/09/20 07:19:37;;;;;;;;;1.00;1.00;;;;;12.71;71.98;102365.06;5052119;28;9938;-65
2022/09/20 07:22:03;;;;;;;;;2.00;2.00;;;;;12.75;71.76;102365.56;5067330;28;9258;-65
2022/09/20 07:24:31;;;;;;;;;2.00;0.67;;;;;12.76;71.06;102372.66;5051992;28;10006;-66
2022/09/20 07:27:03;;;;;;;;;0.00;0.00;;;;;12.78;70.73;102366.06;5051995;28;9988;-66
2022/09/20 07:29:30;;;;;;;;;0.00;0.00;;;;;12.80;70.76;102369.47;5051926;28;9075;-66
2022/09/20 07:31:57;;;;;;;;;0.33;0.33;;;;;12.81;70.03;102379.25;5051568;28;9278;-65
2022/09/20 07:34:24;;;;;;;;;0.00;0.00;;;;;12.83;69.85;102374.50;5032086;28;9159;-66
2022/09/20 07:36:53;;;;;;;;;0.00;0.00;;;;;12.85;69.77;102374.34;5031631;28;9170;-67
2022/09/20 07:39:20;;;;;;;;;0.00;0.00;;;;;12.80;69.27;102380.28;5051602;28;9424;-67
2022/09/20 07:41:49;;;;;;;;;0.33;0.33;;;;;12.80;69.06;102380.28;5050996;28;9082;-66
2022/09/20 07:44:20;;;;;;;;;0.00;0.00;;;;;12.78;69.15;102386.84;5051841;28;9174;-66
2022/09/20 07:46:56;;;;;;;;;2.00;0.67;;;;;12.84;69.33;102378.03;5050528;28;9401;-65
2022/09/20 07:49:24;;;;;;;;;0.00;0.00;;;;;12.87;68.84;102383.97;5044374;28;9158;-66
2022/09/20 07:51:52;;;;;;;;;0.00;0.00;;;;;12.87;68.79;102378.56;5051716;28;9918;-66
2022/09/20 07:54:19;;;;;;;;;1.00;1.00;;;;;12.91;68.95;102379.06;5051363;28;9217;-66
2022/09/20 07:56:46;;;;;;;;;0.67;0.00;;;;;12.93;69.02;102382.44;5051202;28;9204;-67
2022/09/20 07:59:13;;;;;;;;;0.00;0.00;;;;;12.98;69.17;102390.88;5051222;28;9193;-65
2022/09/20 08:01:41;;;;;;;;;0.00;0.00;;;;;13.02;69.07;102389.50;5051239;28;9081;-66
2022/09/20 08:04:08;;;;;;;;;0.33;0.33;;;;;13.10;68.88;102388.66;5051394;28;9071;-66
2022/09/20 08:06:36;;;;;;;;;0.00;0.00;;;;;13.15;68.93;102382.72;5050519;28;9018;-66
2022/09/20 08:09:04;;;;;;;;;0.00;0.00;;;;;13.21;68.94;102376.63;5050951;28;9012;-66
2022/09/20 08:11:38;;;;;;;;;0.33;0.00;;;;;13.27;69.09;102387.59;5051107;28;9329;-67
2022/09/20 08:14:05;;;;;;;;;0.00;0.00;;;;;13.31;68.84;102388.94;5051478;28;9223;-66
2022/09/20 08:16:46;;;;;;;;;0.00;0.00;;;;;13.36;68.90;102391.13;5050698;28;9095;-65
2022/09/20 08:19:18;;;;;;;;;1.00;0.00;;;;;13.36;68.63;102394.66;5051663;28;8994;-66
2022/09/20 08:21:45;;;;;;;;;0.00;0.00;;;;;13.35;68.53;102392.97;5049855;28;9049;-67
2022/09/20 08:24:12;;;;;;;;;0.00;0.00;;;;;13.39;68.58;102400.75;5051539;28;9088;-67
2022/09/20 08:26:39;;;;;;;;;0.00;0.00;;;;;13.40;68.44;102416.81;5050145;28;9708;-66
2022/09/20 08:29:05;;;;;;;;;0.00;0.00;;;;;13.39;68.08;102415.13;5031068;28;9109;-67
2022/09/20 08:31:35;;;;;;;;;0.00;0.00;;;;;13.35;67.92;102414.63;5043978;28;8998;-67
2022/09/20 08:34:07;;;;;;;;;0.00;0.00;;;;;13.37;67.78;102425.28;5050917;28;8858;-67
2022/09/20 08:36:37;;;;;;;;;0.00;0.00;;;;;13.36;67.75;102423.56;5050357;28;8966;-67
2022/09/20 08:39:04;;;;;;;;;1.00;0.00;;;;;13.38;67.74;102434.25;5050970;28;8990;-67
2022/09/20 08:42:26;;;;;;;;;0.00;0.00;;;;;13.37;67.73;102438.81;5044694;28;9173;-67
2022/09/20 08:45:12;;;;;;;;;0.00;0.00;;;;;13.37;67.45;102449.63;5050836;28;9120;-66
2022/09/20 08:47:59;;;;;;;;;2.67;1.00;;;;;13.27;67.46;102463.34;5051039;28;9039;-67
2022/09/20 08:50:25;;;;;;;;;0.00;0.00;;;;;13.17;68.22;102464.53;5050314;28;9282;-66
2022/09/20 08:52:56;;;;;;;;;1.00;1.00;;;;;13.02;69.57;102467.91;5050778;28;9138;-66
2022/09/20 08:55:30;;;;;;;;;0.00;0.00;;;;;12.92;70.95;102477.19;5050835;28;9215;-66
2022/09/20 08:58:02;;;;;;;;;0.00;0.00;;;;;12.88;71.46;102473.97;5048986;28;9014;-67
2022/09/20 09:00:36;;;;;;;;;0.00;0.00;;;;;12.82;72.08;102470.13;5050942;28;9782;-67
2022/09/20 09:03:05;;;;;;;;;2.00;0.00;;;;;12.80;72.58;102460.47;5050720;28;9179;-66
2022/09/20 09:05:53;;;;;;;;;0.00;0.00;;;;;12.79;72.73;102470.44;5050328;28;9135;-66
2022/09/20 09:08:35;;;;;;;;;1.00;0.00;;;;;12.80;72.86;102461.34;5050038;28;9236;-66
2022/09/20 09:11:13;;;;;;;;;0.00;0.00;;;;;12.84;72.59;102456.41;5051087;28;9496;-66
2022/09/20 09:13:51;;;;;;;;;0.00;0.00;;;;;12.91;72.95;102456.59;5050542;28;9173;-66
2022/09/20 09:16:20;;;;;;;;;1.00;1.00;;;;;12.96;72.74;102460.47;5050278;28;9284;-66
2022/09/20 09:18:54;;;;;;;;;0.00;0.00;;;;;12.96;72.60;102454.22;5052700;28;9243;-66
2022/09/20 09:21:24;;;;;;;;;0.00;0.00;;;;;13.00;72.44;102455.56;5053036;28;9029;-65
2022/09/20 09:24:08;;;;;;;;;0.00;0.00;;;;;13.04;71.89;102456.91;5051332;28;9979;-64
2022/09/20 09:26:39;;;;;;;;;0.00;0.00;;;;;13.07;71.60;102452.00;5050355;28;9183;-65
2022/09/20 09:29:10;;;;;;;;;0.00;0.00;;;;;13.11;71.67;102460.63;5050697;28;9170;-65
2022/09/20 09:31:38;;;;;;;;;0.00;0.00;;;;;13.17;71.50;102453.72;5050249;28;9128;-64
2022/09/20 09:34:22;;;;;;;;;1.00;1.00;;;;;13.21;71.35;102444.22;5050007;28;8905;-64
2022/09/20 09:36:48;;;;;;;;;0.00;0.00;;;;;13.22;70.96;102449.47;5046596;28;9000;-65
2022/09/20 09:39:23;;;;;;;;;0.00;0.00;;;;;13.23;70.72;102450.31;5049830;28;9255;-66
2022/09/20 09:41:49;;;;;;;;;1.00;0.00;;;;;13.29;70.26;102455.06;5049840;28;9179;-65
2022/09/20 09:44:26;;;;;;;;;1.00;0.00;;;;;13.34;70.16;102455.38;5049931;28;9166;-66
2022/09/20 09:46:55;;;;;;;;;0.00;0.00;;;;;13.36;70.03;102447.91;5049638;28;9178;-65
2022/09/20 09:49:24;;;;;;;;;0.00;0.00;;;;;13.39;69.45;102450.28;5049554;28;9026;-65
2022/09/20 09:51:56;;;;;;;;;0.00;0.00;;;;;13.43;69.30;102448.91;5049149;28;8976;-66
2022/09/20 09:54:27;;;;;;;;;0.00;0.00;;;;;13.48;68.84;102449.25;5049706;28;8998;-67
2022/09/20 09:57:25;;;;;;;;;0.00;0.00;;;;;13.54;68.30;102450.41;5049401;28;9014;-66
2022/09/20 10:00:11;;;;;;;;;0.67;0.67;;;;;13.53;68.52;102455.00;5018530;28;9756;-67
2022/09/20 10:02:51;;;;;;;;;0.00;0.00;;;;;13.54;68.31;102453.13;5052418;28;9002;-67
2022/09/20 10:05:47;;;;;;;;;0.00;0.00;;;;;13.53;67.88;102455.00;5053586;28;9022;-66
2022/09/20 10:08:44;;;;;;;;;0.00;0.00;;;;;13.56;68.07;102457.31;5045559;28;9067;-66
2022/09/20 10:11:18;;;;;;;;;1.67;0.00;;;;;13.55;67.59;102457.50;5069062;28;9187;-66
2022/09/20 10:14:22;;;;;;;;;0.00;0.00;;;;;13.56;67.58;102456.47;5053699;28;8910;-66
2022/09/20 10:17:16;;;;;;;;;0.00;0.00;;;;;13.67;67.46;102448.00;5053502;28;9596;-66
2022/09/20 10:20:06;;;;;;;;;0.33;0.33;;;;;13.76;67.28;102441.53;5053335;28;9585;-66
2022/09/20 10:22:49;;;;;;;;;0.33;0.33;;;;;13.94;66.82;102446.69;5053008;28;9075;-66
2022/09/20 10:26:21;;;;;;;;;0.00;0.00;;;;;13.92;65.91;102442.47;5053882;28;8904;-66
2022/09/20 10:29:22;;;;;;;;;0.00;0.00;;;;;13.98;65.88;102442.63;5054235;28;8940;-66
2022/09/20 10:32:06;;;;;;;;;2.00;2.00;;;;;14.03;65.86;102442.91;5053843;28;9562;-66
2022/09/20 10:35:10;;;;;;;;;0.00;0.00;;;;;14.04;65.07;102439.19;5053466;28;8830;-66
2022/09/20 10:37:45;;;;;;;;;0.00;0.00;;;;;14.10;64.66;102434.94;5052586;28;8952;-65
2022/09/20 10:40:14;;;;;;;;;0.00;0.00;;;;;14.16;64.21;102431.50;5053044;28;8933;-66
2022/09/20 10:43:13;;;;;;;;;0.00;0.00;;;;;14.23;64.18;102424.34;5052977;28;8939;-67
2022/09/20 10:46:07;;;;;;;;;0.00;0.00;;;;;14.32;63.64;102442.22;5052686;28;8876;-67
2022/09/20 10:49:13;;;;;;;;;0.00;0.00;;;;;14.39;63.27;102438.81;5052593;28;8941;-67
2022/09/20 10:52:19;;;;;;;;;0.00;0.00;;;;;14.38;62.60;102426.25;5052913;28;8838;-64
2022/09/20 10:54:48;;;;;;;;;0.00;0.00;;;;;14.40;62.05;102430.50;5052436;28;8932;-66
2022/09/20 10:57:37;;;;;;;;;0.00;0.00;;;;;14.44;61.87;102434.53;5051176;28;8952;-67
2022/09/20 11:00:47;;;;;;;;;0.00;0.00;;;;;14.51;61.87;102430.09;5040339;28;8842;-66
2022/09/20 11:03:37;;;;;;;;;0.00;0.00;;;;;14.63;61.70;102435.94;5052307;28;8876;-66
2022/09/20 11:06:24;;;;;;;;;0.00;0.00;;;;;14.70;60.63;102434.16;5052461;28;8844;-66
2022/09/20 11:08:56;;;;;;;;;0.00;0.00;;;;;14.76;60.42;102438.88;5051998;28;8821;-67
2022/09/20 11:11:24;;;;;;;;;0.75;0.75;;;;;14.76;60.17;102441.56;5051952;28;8838;-67
2022/09/20 11:14:02;;;;;;;;;0.00;0.00;;;;;14.78;59.63;102438.66;5051853;28;8830;-67
2022/09/20 11:16:35;;;;;;;;;0.00;0.00;;;;;14.75;59.08;102439.91;5052014;28;8853;-67
2022/09/20 11:19:12;;;;;;;;;0.00;0.00;;;;;14.76;59.27;102440.75;5052460;28;8810;-67
2022/09/20 11:21:59;;;;;;;;;0.00;0.00;;;;;14.79;59.40;102448.50;5051170;28;9502;-66
2022/09/20 11:24:35;;;;;;;;;0.00;0.00;;;;;14.83;59.15;102437.13;5052104;28;8999;-67
2022/09/20 11:27:13;;;;;;;;;0.00;0.00;;;;;14.87;59.71;102447.56;5051514;28;8833;-68
2022/09/20 11:30:02;;;;;;;;;1.00;0.00;;;;;14.90;59.10;102447.22;5052233;28;9594;-67
2022/09/20 11:32:46;;;;;;;;;1.25;0.25;;;;;14.92;58.60;102447.88;5052141;28;8833;-67
2022/09/20 11:35:25;;;;;;;;;0.00;0.00;;;;;14.93;58.34;102446.84;5052277;28;9541;-66
2022/09/20 11:38:17;;;;;;;;;1.00;1.00;;;;;14.94;58.55;102443.94;5066893;28;9577;-66
2022/09/20 11:41:00;;;;;;;;;1.00;0.00;;;;;14.91;58.38;102440.75;5041408;28;8834;-66
2022/09/20 11:43:29;;;;;;;;;1.00;1.00;;;;;14.84;56.99;102446.94;5051851;28;8842;-66
2022/09/20 11:46:05;;;;;;;;;0.00;0.00;;;;;14.85;57.23;102442.34;5051997;28;8865;-66
2022/09/20 11:48:38;;;;;;;;;0.00;0.00;;;;;14.88;56.66;102443.84;5051610;28;8844;-67
2022/09/20 11:51:20;;;;;;;;;0.00;0.00;;;;;14.88;54.84;102443.84;5051652;28;8822;-67
2022/09/20 11:53:55;;;;;;;;;0.00;0.00;;;;;14.94;54.78;102451.25;5032149;28;8854;-66
2022/09/20 11:56:27;;;;;;;;;0.00;0.00;;;;;15.05;54.89;102448.94;5050860;28;8880;-66
2022/09/20 11:59:00;;;;;;;;;0.00;0.00;;;;;15.07;55.17;102448.75;5051230;28;8846;-66
2022/09/20 12:01:37;;;;;;;;;0.75;0.75;;;;;15.15;54.89;102450.53;5051644;28;9537;-66
2022/09/20 12:04:11;;;;;;;;;0.00;0.00;;;;;15.08;54.94;102445.00;5051366;28;8838;-67
2022/09/20 12:07:04;;;;;;;;;1.50;0.00;;;;;15.02;55.13;102443.03;5050984;28;9621;-66
2022/09/20 12:09:39;;;;;;;;;0.00;0.00;;;;;15.05;56.32;102443.50;5051297;28;8985;-66
2022/09/20 12:12:37;;;;;;;;;0.00;0.00;;;;;15.03;56.61;102444.72;5051132;28;8822;-66
2022/09/20 12:15:20;;;;;;;;;0.00;0.00;;;;;15.05;57.42;102446.22;5047544;28;8845;-69
2022/09/20 12:17:46;;;;;;;;;0.00;0.00;;;;;15.02;57.61;102449.28;5050130;28;8845;-66
2022/09/20 12:20:34;;;;;;;;;0.00;0.00;;;;;14.95;57.36;102456.50;5050074;28;8867;-66
2022/09/20 12:23:44;;;;;;;;;0.25;0.25;;;;;14.82;57.91;102465.22;5051239;28;8860;-66
2022/09/20 12:26:20;;;;;;;;;0.00;0.00;;;;;14.76;59.33;102468.69;5049378;28;8837;-65
2022/09/20 12:28:55;;;;;;;;;0.25;0.00;;;;;14.70;59.85;102460.44;5051026;28;8952;-66
2022/09/20 12:31:31;;;;;;;;;0.00;0.00;;;;;14.64;60.43;102459.28;5051085;28;8844;-66
2022/09/20 12:34:24;;;;;;;;;0.00;0.00;;;;;14.63;61.46;102465.75;5066328;28;8818;-65
2022/09/20 12:36:53;;;;;;;;;0.00;0.00;;;;;14.64;61.94;102458.47;5050558;28;8861;-65
2022/09/20 12:39:28;;;;;;;;;0.00;0.00;;;;;14.63;62.04;102463.03;5050870;28;8929;-65
2022/09/20 12:42:11;;;;;;;;;0.25;0.00;;;;;14.66;62.34;102451.81;5049395;28;8822;-67
2022/09/20 12:44:49;;;;;;;;;0.00;0.00;;;;;14.71;61.86;102449.41;5051100;28;8818;-68
2022/09/20 12:47:31;;;;;;;;;0.00;0.00;;;;;14.80;62.63;102450.19;5085096;27;13415;-66